createdAt,value
2023-02-03T00:00:32.061Z,9.87
2023-02-03T00:03:02.008Z,10.50
2023-02-03T00:05:32.891Z,10.10
2023-02-03T00:08:02.634Z,9.73
2023-02-03T00:10:32.491Z,10.73
2023-02-03T00:13:05.028Z,9.40
2023-02-03T00:15:34.844Z,9.93
2023-02-03T00:18:04.632Z,9.77
2023-02-03T00:20:34.525Z,8.77
2023-02-03T00:23:08.284Z,9.77
2023-02-03T00:25:38.443Z,10.00
2023-02-03T00:28:10.881Z,10.07
2023-02-03T00:30:41.092Z,9.10
2023-02-03T00:33:10.812Z,9.77
2023-02-03T00:35:41.912Z,9.27
2023-02-03T00:38:11.689Z,9.13
2023-02-03T00:40:41.479Z,9.00
2023-02-03T00:43:14.094Z,9.27
2023-02-03T00:45:43.921Z,9.90
2023-02-03T00:48:14.220Z,9.43
2023-02-03T00:50:44.005Z,9.33
2023-02-03T00:53:14.213Z,10.63
2023-02-03T00:55:46.000Z,10.30
2023-02-03T00:58:18.528Z,10.63
2023-02-03T01:00:48.366Z,10.57
2023-02-03T01:03:19.195Z,11.23
2023-02-03T01:05:49.181Z,10.77
2023-02-03T01:08:18.998Z,10.67
2023-02-03T01:10:48.950Z,9.87
2023-02-03T01:13:21.389Z,10.07
2023-02-03T01:15:51.435Z,10.17
2023-02-03T01:18:21.375Z,10.50
2023-02-03T01:20:51.471Z,7.07
2023-02-03T01:23:21.411Z,10.57
2023-02-03T01:25:51.558Z,11.37
2023-02-03T01:28:23.988Z,9.63
2023-02-03T01:30:53.794Z,9.27
2023-02-03T01:33:23.855Z,9.53
2023-02-03T01:35:53.664Z,8.93
2023-02-03T01:38:23.511Z,6.63
2023-02-03T01:40:53.379Z,7.83
2023-02-03T01:43:37.217Z,9.03
2023-02-03T01:46:11.100Z,9.70
2023-02-03T01:48:40.953Z,7.13
2023-02-03T01:51:10.897Z,9.73
2023-02-03T01:53:40.888Z,8.30
2023-02-03T01:56:11.852Z,9.20
2023-02-03T01:58:45.559Z,9.70
2023-02-03T02:01:17.503Z,9.27
2023-02-03T02:03:52.884Z,8.63
2023-02-03T02:06:22.780Z,7.80
2023-02-03T02:08:55.855Z,8.50
2023-02-03T02:11:25.673Z,6.53
2023-02-03T02:14:02.048Z,7.67
2023-02-03T02:16:44.143Z,7.87
2023-02-03T02:19:43.689Z,7.40
2023-02-03T02:22:22.463Z,8.40
2023-02-03T02:25:21.386Z,7.70
2023-02-03T02:28:14.810Z,6.50
2023-02-03T02:31:13.385Z,7.67
2023-02-03T02:33:55.350Z,7.40
2023-02-03T02:36:33.553Z,7.17
2023-02-03T02:39:13.269Z,5.90
2023-02-03T02:41:47.717Z,6.83
2023-02-03T02:44:22.467Z,6.50
2023-02-03T02:46:56.570Z,6.50
2023-02-03T02:49:34.673Z,6.90
2023-02-03T02:52:09.344Z,6.63
2023-02-03T02:54:44.473Z,6.10
2023-02-03T02:57:16.885Z,6.30
2023-02-03T02:59:48.264Z,6.63
2023-02-03T03:02:18.389Z,6.33
2023-02-03T03:04:54.149Z,4.70
2023-02-03T03:07:29.206Z,6.67
2023-02-03T03:10:03.991Z,6.17
2023-02-03T03:12:37.755Z,5.40
2023-02-03T03:15:11.447Z,5.43
2023-02-03T03:17:45.178Z,5.03
2023-02-03T03:20:24.148Z,4.87
2023-02-03T03:23:00.729Z,5.10
2023-02-03T03:25:38.123Z,4.70
2023-02-03T03:28:13.065Z,5.20
2023-02-03T03:30:45.186Z,4.80
2023-02-03T03:33:15.286Z,3.70
2023-02-03T03:35:52.725Z,4.53
2023-02-03T03:38:32.050Z,4.00
2023-02-03T03:41:08.854Z,4.90
2023-02-03T03:43:44.101Z,4.53
2023-02-03T03:46:17.897Z,5.43
2023-02-03T03:48:54.587Z,4.67
2023-02-03T03:51:32.006Z,4.40
2023-02-03T03:54:05.385Z,4.43
2023-02-03T03:56:39.659Z,4.63
2023-02-03T03:59:12.075Z,3.93
2023-02-03T04:01:42.871Z,3.97
2023-02-03T04:04:14.455Z,4.20
2023-02-03T04:06:46.980Z,4.50
2023-02-03T04:09:17.710Z,3.63
2023-02-03T04:12:00.143Z,3.70
2023-02-03T04:14:30.194Z,4.57
2023-02-03T04:17:00.382Z,4.03
2023-02-03T04:19:30.446Z,2.67
2023-02-03T04:22:03.053Z,3.40
2023-02-03T04:24:32.922Z,4.07
2023-02-03T04:27:05.170Z,3.83
2023-02-03T04:29:35.227Z,4.17
2023-02-03T04:32:05.170Z,3.67
2023-02-03T04:34:35.055Z,4.50
2023-02-03T04:37:07.734Z,3.77
2023-02-03T04:39:37.672Z,3.43
2023-02-03T04:42:07.537Z,3.30
2023-02-03T04:44:37.249Z,3.53
2023-02-03T04:47:08.655Z,4.10
2023-02-03T04:49:38.444Z,3.80
2023-02-03T04:52:11.429Z,3.70
2023-02-03T04:54:41.148Z,3.93
2023-02-03T04:57:11.046Z,3.73
2023-02-03T04:59:40.861Z,3.77
2023-02-03T05:02:10.865Z,3.50
2023-02-03T05:04:40.662Z,3.33
2023-02-03T05:07:13.258Z,3.83
2023-02-03T05:09:42.990Z,3.80
2023-02-03T05:12:12.739Z,3.70
2023-02-03T05:14:42.650Z,3.20
2023-02-03T05:17:12.391Z,3.33
2023-02-03T05:19:42.158Z,3.40
2023-02-03T05:22:14.592Z,3.37
2023-02-03T05:24:44.476Z,3.53
2023-02-03T05:27:14.221Z,2.90
2023-02-03T05:29:43.911Z,3.13
2023-02-03T05:32:13.612Z,3.07
2023-02-03T05:34:44.510Z,2.70
2023-02-03T05:37:17.033Z,2.87
2023-02-03T05:39:47.032Z,2.23
2023-02-03T05:42:14.165Z,2.70
2023-02-03T05:44:44.401Z,2.60
2023-02-03T05:47:14.131Z,2.43
2023-02-03T05:49:43.939Z,2.40
2023-02-03T05:52:16.935Z,2.43
2023-02-03T05:54:46.717Z,2.67
2023-02-03T05:57:18.312Z,2.67
2023-02-03T05:59:48.138Z,2.43
2023-02-03T06:02:18.059Z,3.33
2023-02-03T06:04:47.880Z,1.87
2023-02-03T06:07:20.292Z,1.93
2023-02-03T06:09:50.430Z,2.53
2023-02-03T06:12:20.216Z,2.10
2023-02-03T06:14:50.094Z,2.43
2023-02-03T06:17:19.913Z,2.60
2023-02-03T06:19:49.720Z,2.20
2023-02-03T06:22:22.164Z,2.20
2023-02-03T06:24:52.137Z,1.80
2023-02-03T06:27:22.010Z,2.33
2023-02-03T06:29:51.967Z,2.40
2023-02-03T06:32:21.757Z,1.90
2023-02-03T06:34:51.475Z,2.27
2023-02-03T06:37:24.861Z,2.10
2023-02-03T06:39:54.642Z,2.03
2023-02-03T06:42:24.459Z,1.97
2023-02-03T06:44:55.262Z,1.90
2023-02-03T06:47:24.965Z,2.63
2023-02-03T06:49:54.968Z,1.80
2023-02-03T06:52:27.421Z,2.30
2023-02-03T06:54:57.176Z,1.93
2023-02-03T06:57:27.046Z,2.00
2023-02-03T06:59:56.884Z,1.73
2023-02-03T07:02:26.775Z,2.13
2023-02-03T07:04:56.524Z,2.57
2023-02-03T07:07:28.929Z,2.30
2023-02-03T07:09:58.772Z,1.80
2023-02-03T07:12:28.793Z,1.80
2023-02-03T07:14:58.536Z,2.40
2023-02-03T07:17:28.394Z,2.60
2023-02-03T07:19:58.194Z,2.00
2023-02-03T07:22:30.674Z,2.50
2023-02-03T07:25:00.553Z,2.30
2023-02-03T07:27:30.604Z,2.00
2023-02-03T07:30:00.543Z,1.80
2023-02-03T07:32:32.297Z,1.60
2023-02-03T07:35:03.051Z,2.43
2023-02-03T07:37:35.522Z,2.30
2023-02-03T07:40:07.708Z,2.13
2023-02-03T07:42:37.695Z,2.17
2023-02-03T07:45:08.376Z,2.10
2023-02-03T07:47:38.368Z,2.20
2023-02-03T07:50:08.626Z,3.00
2023-02-03T07:52:41.299Z,3.23
2023-02-03T07:55:12.347Z,2.93
2023-02-03T07:57:43.817Z,2.00
2023-02-03T08:00:16.265Z,1.93
2023-02-03T08:02:46.958Z,2.10
2023-02-03T08:05:17.681Z,2.23
2023-02-03T08:07:50.319Z,2.20
2023-02-03T08:10:20.453Z,2.37
2023-02-03T08:12:50.313Z,3.23
2023-02-03T08:15:20.281Z,3.60
2023-02-03T08:17:51.647Z,3.13
2023-02-03T08:20:21.575Z,2.80
2023-02-03T08:22:53.959Z,2.37
2023-02-03T08:25:23.796Z,2.90
2023-02-03T08:27:53.923Z,2.20
2023-02-03T08:30:24.014Z,2.10
2023-02-03T08:32:53.934Z,2.13
2023-02-03T08:35:23.764Z,2.83
2023-02-03T08:37:56.471Z,2.37
2023-02-03T08:40:26.853Z,5.43
2023-02-03T08:42:57.566Z,8.80
2023-02-03T08:45:27.451Z,6.07
2023-02-03T08:47:57.575Z,5.47
2023-02-03T08:50:27.800Z,3.13
2023-02-03T08:53:00.970Z,3.33
2023-02-03T08:55:30.831Z,2.67
2023-02-03T08:58:00.661Z,3.13
2023-02-03T09:00:30.831Z,2.23
2023-02-03T09:03:01.178Z,2.40
2023-02-03T09:05:33.151Z,2.50
2023-02-03T09:08:06.264Z,2.73
2023-02-03T09:10:36.230Z,2.27
2023-02-03T09:13:06.285Z,2.70
2023-02-03T09:15:36.477Z,2.27
2023-02-03T09:18:06.534Z,2.40
2023-02-03T09:20:36.411Z,2.20
2023-02-03T09:23:09.099Z,2.90
2023-02-03T09:25:39.090Z,2.70
2023-02-03T09:28:09.544Z,2.30
2023-02-03T09:30:39.589Z,2.57
2023-02-03T09:33:09.473Z,2.30
2023-02-03T09:35:39.278Z,2.40
2023-02-03T09:38:11.610Z,2.43
2023-02-03T09:40:42.503Z,2.30
2023-02-03T09:43:33.546Z,2.37
2023-02-03T09:46:06.577Z,3.53
2023-02-03T09:48:41.550Z,3.03
2023-02-03T09:51:21.812Z,2.97
2023-02-03T09:53:59.221Z,2.93
2023-02-03T09:56:34.671Z,2.50
2023-02-03T09:59:05.479Z,3.03
2023-02-03T10:01:43.609Z,1.33
2023-02-03T10:04:28.539Z,1.83
2023-02-03T10:07:05.730Z,2.00
2023-02-03T10:09:51.683Z,3.03
2023-02-03T10:13:03.277Z,2.70
2023-02-03T10:16:03.250Z,3.10
2023-02-03T10:18:39.472Z,3.30
2023-02-03T10:21:19.951Z,3.10
2023-02-03T10:23:55.089Z,2.80
2023-02-03T10:26:30.672Z,2.60
2023-02-03T10:29:05.500Z,2.57
2023-02-03T10:31:39.118Z,2.47
2023-02-03T10:34:13.729Z,2.53
2023-02-03T10:36:55.130Z,2.77
2023-02-03T10:39:33.931Z,2.20
2023-02-03T10:42:08.487Z,2.60
2023-02-03T10:44:41.950Z,2.17
2023-02-03T10:47:25.004Z,2.73
2023-02-03T10:49:57.243Z,3.47
2023-02-03T10:52:32.405Z,2.90
2023-02-03T10:55:07.572Z,2.90
2023-02-03T10:57:42.237Z,2.80
2023-02-03T11:00:26.438Z,3.20
2023-02-03T11:03:02.477Z,2.30
2023-02-03T11:05:32.286Z,2.70
2023-02-03T11:08:02.056Z,2.80
2023-02-03T11:10:37.915Z,2.70
2023-02-03T11:13:24.633Z,2.73
2023-02-03T11:16:00.608Z,3.60
2023-02-03T11:18:48.640Z,2.43
2023-02-03T11:21:21.685Z,3.57
2023-02-03T11:23:56.781Z,3.77
2023-02-03T11:26:30.400Z,2.70
2023-02-03T11:29:05.274Z,1.90
2023-02-03T11:31:38.121Z,2.53
2023-02-03T11:34:10.595Z,1.83
2023-02-03T11:36:40.463Z,2.60
2023-02-03T11:39:28.661Z,3.77
2023-02-03T11:41:59.018Z,3.53
2023-02-03T11:44:33.996Z,3.20
2023-02-03T11:47:06.550Z,2.53
2023-02-03T11:49:58.058Z,3.60
2023-02-03T11:52:53.663Z,3.37
2023-02-03T11:55:48.965Z,3.30
2023-02-03T11:59:01.504Z,2.70
2023-02-03T12:01:55.370Z,2.77
2023-02-03T12:04:44.544Z,3.07
2023-02-03T12:07:41.475Z,3.23
2023-02-03T12:10:26.525Z,2.80
2023-02-03T12:13:08.479Z,2.87
2023-02-03T12:15:57.973Z,3.27
2023-02-03T12:18:48.256Z,3.13
2023-02-03T12:21:44.439Z,3.20
2023-02-03T12:24:27.650Z,3.40
2023-02-03T12:27:06.544Z,3.77
2023-02-03T12:29:43.436Z,3.63
2023-02-03T12:32:22.904Z,2.63
2023-02-03T12:34:59.911Z,3.73
2023-02-03T12:37:32.258Z,2.70
2023-02-03T12:40:05.084Z,3.00
2023-02-03T12:42:40.198Z,2.97
2023-02-03T12:45:15.834Z,3.50
2023-02-03T12:47:50.928Z,2.03
2023-02-03T12:50:31.010Z,2.50
2023-02-03T12:53:06.546Z,2.70
2023-02-03T12:55:40.464Z,3.43
2023-02-03T12:58:16.628Z,2.80
2023-02-03T13:00:51.450Z,2.50
2023-02-03T13:03:29.980Z,3.10
2023-02-03T13:06:13.921Z,2.97
2023-02-03T13:08:50.520Z,3.40
2023-02-03T13:11:26.198Z,4.07
2023-02-03T13:13:59.933Z,4.07
2023-02-03T13:16:35.781Z,3.63
2023-02-03T13:19:09.942Z,3.80
2023-02-03T13:21:42.361Z,3.87
2023-02-03T13:24:14.626Z,3.47
2023-02-03T13:27:12.039Z,2.70
2023-02-03T13:30:00.849Z,2.77
2023-02-03T13:32:48.870Z,2.97
2023-02-03T13:35:34.555Z,2.77
2023-02-03T13:38:31.229Z,2.60
2023-02-03T13:41:08.833Z,2.83
2023-02-03T13:43:44.270Z,2.60
2023-02-03T13:46:26.266Z,3.70
2023-02-03T13:48:57.539Z,3.00
2023-02-03T13:51:35.099Z,3.00
2023-02-03T13:54:11.368Z,2.77
2023-02-03T13:56:42.451Z,2.30
2023-02-03T13:59:33.189Z,2.63
2023-02-03T14:02:35.143Z,2.60
2023-02-03T14:05:05.504Z,2.53
2023-02-03T14:07:38.345Z,2.17
2023-02-03T14:10:31.407Z,2.60
2023-02-03T14:13:03.870Z,2.80
2023-02-03T14:15:39.831Z,2.27
2023-02-03T14:18:34.279Z,2.17
2023-02-03T14:21:23.488Z,2.77
2023-02-03T14:24:00.284Z,2.50
2023-02-03T14:26:47.772Z,2.37
2023-02-03T14:29:29.867Z,3.10
2023-02-03T14:32:02.618Z,2.77
2023-02-03T14:34:41.510Z,2.30
2023-02-03T14:37:27.134Z,3.30
2023-02-03T14:40:29.113Z,2.53
2023-02-03T14:43:28.215Z,3.67
2023-02-03T14:46:29.836Z,3.33
2023-02-03T14:49:19.591Z,3.47
2023-02-03T14:52:00.286Z,3.67
2023-02-03T14:54:57.843Z,3.57
2023-02-03T14:57:39.378Z,3.00
2023-02-03T15:00:31.590Z,3.60
2023-02-03T15:03:25.699Z,3.70
2023-02-03T15:05:58.351Z,3.00
2023-02-03T15:08:37.532Z,5.07
2023-02-03T15:11:27.816Z,5.40
2023-02-03T15:13:58.549Z,3.93
2023-02-03T15:16:30.975Z,4.13
2023-02-03T15:19:07.745Z,2.97
2023-02-03T15:21:44.864Z,2.80
2023-02-03T15:24:19.045Z,2.87
2023-02-03T15:26:50.949Z,3.27
2023-02-03T15:29:24.910Z,3.23
2023-02-03T15:32:19.247Z,2.97
2023-02-03T15:34:51.213Z,2.77
2023-02-03T15:37:26.688Z,3.40
2023-02-03T15:40:03.643Z,3.07
2023-02-03T15:42:39.099Z,3.30
2023-02-03T15:45:16.266Z,2.90
2023-02-03T15:47:55.271Z,3.50
2023-02-03T15:50:31.739Z,2.83
2023-02-03T15:53:08.063Z,3.20
2023-02-03T15:55:42.000Z,3.30
2023-02-03T15:58:20.929Z,3.43
2023-02-03T16:00:54.506Z,3.23
2023-02-03T16:03:37.142Z,2.13
2023-02-03T16:06:13.364Z,3.40
2023-02-03T16:08:48.464Z,2.90
2023-02-03T16:11:30.551Z,3.50
2023-02-03T16:14:03.544Z,3.10
2023-02-03T16:16:38.489Z,2.70
2023-02-03T16:19:17.040Z,3.40
2023-02-03T16:21:56.919Z,3.53
2023-02-03T16:24:42.640Z,3.03
2023-02-03T16:27:39.368Z,3.70
2023-02-03T16:30:39.711Z,3.33
2023-02-03T16:33:29.056Z,3.30
2023-02-03T16:36:16.991Z,3.53
2023-02-03T16:39:00.907Z,3.20
2023-02-03T16:41:43.345Z,3.40
2023-02-03T16:44:26.873Z,3.37
2023-02-03T16:47:09.154Z,3.50
2023-02-03T16:49:51.249Z,3.77
2023-02-03T16:52:23.584Z,3.37
2023-02-03T16:54:53.327Z,3.77
2023-02-03T16:57:23.166Z,3.57
2023-02-03T16:59:53.050Z,3.60
2023-02-03T17:02:23.003Z,3.37
2023-02-03T17:04:52.868Z,3.53
2023-02-03T17:07:25.326Z,3.00
2023-02-03T17:09:55.389Z,3.17
2023-02-03T17:12:25.930Z,3.20
2023-02-03T17:14:58.561Z,4.13
2023-02-03T17:17:28.661Z,3.17
2023-02-03T17:19:59.464Z,3.40
2023-02-03T17:22:32.327Z,3.47
2023-02-03T17:25:02.197Z,3.97
2023-02-03T17:27:31.954Z,3.60
2023-02-03T17:30:02.093Z,3.37
2023-02-03T17:32:31.811Z,3.13
2023-02-03T17:35:01.893Z,3.30
2023-02-03T17:37:35.550Z,3.10
2023-02-03T17:53:55.529Z,4.17
2023-02-03T17:56:28.044Z,2.67
2023-02-03T17:58:59.377Z,3.60
2023-02-03T18:01:30.613Z,3.27
2023-02-03T18:04:01.870Z,3.60
2023-02-03T18:06:33.222Z,3.43
2023-02-03T18:09:06.226Z,3.60
2023-02-03T18:11:37.750Z,3.63
2023-02-03T18:14:07.989Z,3.87
2023-02-03T18:16:38.980Z,4.47
2023-02-03T18:19:10.643Z,3.67
2023-02-03T18:21:41.850Z,3.67
2023-02-03T18:24:18.618Z,3.13
2023-02-03T18:26:51.833Z,2.97
2023-02-03T18:29:22.223Z,2.50
2023-02-03T18:31:52.030Z,3.37
2023-02-03T18:34:22.185Z,4.40
2023-02-03T18:36:52.294Z,3.33
2023-02-03T18:39:24.766Z,3.77
2023-02-03T18:41:54.512Z,3.87
2023-02-03T18:44:25.764Z,3.53
2023-02-03T18:46:55.686Z,2.57
2023-02-03T18:49:25.604Z,3.43
2023-02-03T18:51:55.382Z,3.17
2023-02-03T18:54:29.677Z,3.03
2023-02-03T18:57:00.486Z,3.50
2023-02-03T18:59:30.298Z,2.93
2023-02-03T19:02:00.300Z,3.60
2023-02-03T19:04:30.081Z,2.07
2023-02-03T19:06:59.852Z,3.53
2023-02-03T19:09:32.383Z,4.27
2023-02-03T19:12:03.190Z,3.27
2023-02-03T19:14:32.972Z,3.47
2023-02-03T19:17:03.108Z,3.87
2023-02-03T19:19:32.937Z,2.60
2023-02-03T19:22:02.829Z,3.37
2023-02-03T19:24:35.548Z,3.70
2023-02-03T19:27:05.446Z,3.67
2023-02-03T19:29:35.246Z,3.70
2023-02-03T19:32:06.935Z,3.20
2023-02-03T19:34:36.801Z,3.23
2023-02-03T19:37:06.811Z,1.70
2023-02-03T19:39:39.544Z,2.97
2023-02-03T19:42:09.550Z,2.90
2023-02-03T19:44:40.161Z,2.80
2023-02-03T19:47:10.027Z,3.03
2023-02-03T19:49:39.821Z,2.57
2023-02-03T19:52:10.393Z,3.00
2023-02-03T19:54:42.953Z,3.90
2023-02-03T19:57:12.724Z,2.90
2023-02-03T19:59:42.782Z,2.60
2023-02-03T20:02:14.768Z,2.57
2023-02-03T20:04:45.312Z,2.63
2023-02-03T20:07:15.747Z,2.30
2023-02-03T20:09:48.159Z,3.43
2023-02-03T20:12:18.003Z,2.43
2023-02-03T20:14:48.046Z,2.77
2023-02-03T20:17:18.057Z,2.83
2023-02-03T20:19:47.740Z,2.70
2023-02-03T20:22:17.422Z,3.30
2023-02-03T20:24:50.380Z,2.73
2023-02-03T20:27:20.827Z,3.40
2023-02-03T20:29:50.991Z,3.60
2023-02-03T20:32:21.166Z,2.80
2023-02-03T20:34:50.970Z,3.37
2023-02-03T20:37:20.844Z,2.80
2023-02-03T20:39:53.521Z,2.67
2023-02-03T20:42:23.379Z,3.20
2023-02-03T20:44:53.279Z,2.60
2023-02-03T20:47:23.522Z,3.43
2023-02-03T20:49:54.035Z,2.87
2023-02-03T20:52:24.204Z,2.93
2023-02-03T20:54:56.698Z,2.67
2023-02-03T20:57:26.641Z,3.00
2023-02-03T20:59:57.036Z,2.90
2023-02-03T21:02:34.194Z,2.97
2023-02-03T21:05:02.629Z,3.07
2023-02-03T21:07:33.463Z,2.97
2023-02-03T21:10:20.778Z,2.97
2023-02-03T21:12:50.921Z,2.77
2023-02-03T21:15:22.055Z,2.20
2023-02-03T21:17:51.825Z,2.53
2023-02-03T21:20:33.037Z,2.60
2023-02-03T21:23:03.181Z,3.10
2023-02-03T21:25:36.872Z,2.80
2023-02-03T21:28:06.966Z,3.00
2023-02-03T21:30:36.983Z,2.73
2023-02-03T21:33:30.903Z,3.77
2023-02-03T21:36:00.795Z,2.60
2023-02-03T21:38:33.234Z,3.10
2023-02-03T21:41:05.798Z,2.87
2023-02-03T21:43:36.496Z,3.10
2023-02-03T21:46:06.628Z,3.00
2023-02-03T21:48:42.408Z,3.57
2023-02-03T21:51:19.066Z,3.13
2023-02-03T21:53:53.934Z,3.13
2023-02-03T21:56:28.289Z,3.77
2023-02-03T21:59:00.461Z,2.77
2023-02-03T22:01:35.896Z,3.13
2023-02-03T22:04:06.738Z,3.43
2023-02-03T22:06:45.272Z,3.20
2023-02-03T22:09:16.344Z,3.17
2023-02-03T22:11:49.097Z,3.10
2023-02-03T22:14:23.357Z,3.10
2023-02-03T22:16:53.398Z,3.03
2023-02-03T22:19:23.349Z,2.90
2023-02-03T22:21:53.399Z,3.63
2023-02-03T22:24:23.403Z,2.80
2023-02-03T22:27:00.281Z,2.80
2023-02-03T22:29:30.484Z,3.67
2023-02-03T22:32:00.524Z,3.30
2023-02-03T22:34:30.431Z,4.53
2023-02-03T22:37:00.293Z,3.80
2023-02-03T22:39:30.065Z,4.53
2023-02-03T22:42:02.503Z,3.37
2023-02-03T22:44:32.400Z,4.70
2023-02-03T22:47:02.653Z,4.33
2023-02-03T22:49:32.486Z,4.30
2023-02-03T22:52:05.778Z,4.23
2023-02-03T22:54:36.973Z,4.10
2023-02-03T22:57:09.823Z,5.07
2023-02-03T22:59:39.622Z,3.20
2023-02-03T23:02:09.868Z,3.80
2023-02-03T23:04:39.856Z,3.63
2023-02-03T23:07:09.664Z,3.43
2023-02-03T23:09:39.762Z,2.77
2023-02-03T23:12:12.500Z,3.40
2023-02-03T23:14:42.285Z,3.77
2023-02-03T23:17:12.059Z,3.47
2023-02-03T23:19:41.872Z,3.23
2023-02-03T23:22:12.103Z,2.90
2023-02-03T23:24:41.825Z,3.10
2023-02-03T23:27:14.572Z,3.10
2023-02-03T23:29:44.419Z,2.90
2023-02-03T23:32:14.107Z,3.00
2023-02-03T23:34:56.198Z,3.30
2023-02-03T23:37:26.855Z,3.83
2023-02-03T23:39:56.628Z,2.77
2023-02-03T23:42:29.347Z,2.90
2023-02-03T23:44:59.788Z,2.80
2023-02-03T23:47:29.942Z,2.93
2023-02-03T23:49:59.895Z,3.07
2023-02-03T23:52:35.631Z,3.43
2023-02-03T23:55:07.687Z,3.77
2023-02-03T23:57:42.869Z,2.90
